Keiho Maru — JJ4010 — position and weather

sailwx.info

Track history (hours):
 
Tides and Currents Weather Stations Pressure Air Temp Water Temp Dewpoint Dewpoint Depression Visibility Wind Speed Wind Dir Waves Ship Positions

Keiho Maru

Last reported at 2017-Jan-17 07:07 UTC. Time now 2017-Jan-17 11:04 UTC.
Position N 34°41' E 135°12'.

Length 38 m; draft 3.6 m.

Type: Tug. MMSI: 431401501.

Date/timePositionNaut miles runAvg speedWind from/ knotsBaromVisibWave heightAir tempDewpointWater temp
2017-Jan-17 07:07N 34°41' E 135°12'2 4.3
2017-Jan-17 06:33N 34°39' E 135°15'0 0.3
2017-Jan-17 05:33N 34°39' E 135°15'0 0.0
2017-Jan-17 04:33N 34°39' E 135°15'0 0.0
2017-Jan-17 03:33N 34°39' E 135°15'0 0.0
2017-Jan-17 02:33N 34°39' E 135°15'0 0.0
2017-Jan-17 01:33N 34°39' E 135°15'3 2.9
2017-Jan-17 00:33N 34°42' E 135°14'1 0.8
2017-Jan-16 23:33N 34°41' E 135°14'2 1.6
2017-Jan-16 22:33N 34°40' E 135°14'1 1.0
2017-Jan-16 21:33N 34°41' E 135°14'2 1.7
2017-Jan-16 20:33N 34°41' E 135°12'1 0.1
2017-Jan-16 09:33N 34°41' E 135°13'4 3.6
2017-Jan-16 08:33N 34°41' E 135°17'3 2.6
2017-Jan-16 07:33N 34°41' E 135°14'0 0.0
2017-Jan-16 06:33N 34°41' E 135°14'0 0.0
2017-Jan-16 05:33N 34°41' E 135°14'0 0.0
2017-Jan-16 04:33N 34°41' E 135°14'2 1.7
2017-Jan-16 03:33N 34°42' E 135°16'1 1.3
2017-Jan-16 02:33N 34°42' E 135°18'5 5.0
2017-Jan-16 01:33N 34°40' E 135°12'0 0.0
2017-Jan-16 00:33N 34°41' E 135°12'0 0.0
2017-Jan-15 23:33N 34°41' E 135°12'2 0.1
2017-Jan-14 21:33N 34°40' E 135°15'1 1.1
2017-Jan-14 20:33N 34°40' E 135°14'0 0.1
2017-Jan-14 19:33N 34°40' E 135°14'0 0.0
2017-Jan-14 18:33N 34°40' E 135°14'0 0.0
2017-Jan-14 17:33N 34°40' E 135°14'0 0.0
2017-Jan-14 16:33N 34°40' E 135°14'1 0.9
2017-Jan-14 15:33N 34°39' E 135°15'2 2.5
2017-Jan-14 14:33N 34°41' E 135°13'0 0.0
2017-Jan-14 13:33N 34°41' E 135°13'2 1.8
2017-Jan-14 12:33N 34°41' E 135°15'2 1.7
2017-Jan-14 11:33N 34°40' E 135°16'2 2.2
2017-Jan-14 10:33N 34°40' E 135°13'0 0.0
2017-Jan-14 09:33N 34°40' E 135°13'0 0.0
2017-Jan-14 08:33N 34°40' E 135°13'1 1.0
2017-Jan-14 07:33N 34°41' E 135°12'0 0.4
2017-Jan-14 06:33N 34°41' E 135°12'0 0.0
2017-Jan-14 05:33N 34°41' E 135°12'0 0.0
2017-Jan-14 04:33N 34°41' E 135°12'0 0.0
2017-Jan-14 03:33N 34°41' E 135°12'1 0.3
2017-Jan-13 23:33N 34°41' E 135°14'2 1.9
2017-Jan-13 22:33N 34°39' E 135°15'1 1.5
2017-Jan-13 21:33N 34°39' E 135°13'2 1.9
2017-Jan-13 20:33N 34°41' E 135°12'0 0.0
2017-Jan-12 23:12N 34°41' E 135°12'4 6.4
2017-Jan-12 22:33N 34°41' E 135°17'2 1.8
2017-Jan-12 21:33N 34°40' E 135°18'2 1.7
2017-Jan-12 20:33N 34°41' E 135°16'0 0.0
2017-Jan-12 19:33N 34°41' E 135°16'0 0.0
2017-Jan-12 18:33N 34°41' E 135°16'0 0.0
2017-Jan-12 17:33N 34°41' E 135°16'2 1.9
2017-Jan-12 16:33N 34°40' E 135°14'0 0.2
2017-Jan-12 15:33N 34°40' E 135°14'1 0.9
2017-Jan-12 14:33N 34°40' E 135°15'0 0.4
2017-Jan-12 13:34N 34°41' E 135°15'2 2.0
2017-Jan-12 12:33N 34°41' E 135°13'0 0.0
2017-Jan-12 11:34N 34°41' E 135°13'2 2.1
2017-Jan-12 10:34N 34°41' E 135°15'1 1.1
2017-Jan-12 09:33N 34°40' E 135°15'0 0.5
2017-Jan-12 08:34N 34°40' E 135°15'1 0.7
2017-Jan-12 07:33N 34°40' E 135°14'0 0.1
2017-Jan-12 06:34N 34°40' E 135°14'1 1.1
2017-Jan-12 05:34N 34°41' E 135°14'2 2.1
2017-Jan-12 04:34N 34°42' E 135°16'0 0.0
2017-Jan-12 03:33N 34°42' E 135°16'1 0.8
2017-Jan-12 02:34N 34°42' E 135°17'4 3.8
2017-Jan-12 01:34N 34°41' E 135°12'0 0.0
2017-Jan-12 00:34N 34°41' E 135°12'0 0.0
2017-Jan-11 23:34N 34°41' E 135°12'3 2.9
2017-Jan-11 22:33N 34°39' E 135°15'1 1.4
2017-Jan-11 21:34N 34°40' E 135°15'2 2.0
2017-Jan-11 20:34N 34°41' E 135°12'0 0.0
2017-Jan-10 06:33N 34°41' E 135°12'0 0.0
2017-Jan-10 05:33N 34°41' E 135°12'0 0.0
2017-Jan-10 04:33N 34°41' E 135°12'0 0.0
2017-Jan-10 03:32N 34°41' E 135°12'0 0.0
2017-Jan-10 02:33N 34°41' E 135°12'0 0.0
2017-Jan-10 01:33N 34°41' E 135°12'0 0.0
2017-Jan-10 00:33N 34°41' E 135°12'3 3.2
2017-Jan-09 23:33N 34°42' E 135°16'0 0.5
2017-Jan-09 22:33N 34°42' E 135°15'3 2.8
2017-Jan-09 21:33N 34°41' E 135°12'0 0.1
2017-Jan-09 20:33N 34°41' E 135°12'0 0.0
2017-Jan-09 06:07N 34°41' E 135°12'1 2.2
2017-Jan-09 05:33N 34°41' E 135°14'2 1.7
2017-Jan-09 04:33N 34°42' E 135°15'2 2.5
2017-Jan-09 03:33N 34°41' E 135°12'2 2.2
2017-Jan-09 02:33N 34°41' E 135°15'2 1.8
2017-Jan-09 01:33N 34°41' E 135°13'1 0.7
2017-Jan-09 00:33N 34°41' E 135°12'0 0.0
2017-Jan-08 23:33N 34°41' E 135°12'0 0.0
2017-Jan-08 05:33N 34°41' E 135°12'0 0.0
2017-Jan-08 04:33N 34°41' E 135°12'0 0.0
2017-Jan-08 03:33N 34°41' E 135°12'0 0.0
2017-Jan-08 02:34N 34°41' E 135°12'4 4.1
2017-Jan-08 01:33N 34°41' E 135°17'1 1.3
2017-Jan-08 00:34N 34°40' E 135°18'4 4.2
2017-Jan-07 23:33N 34°41' E 135°13'1 1.0
2017-Jan-07 22:33N 34°41' E 135°12'0 0.0
2017-Jan-07 21:33N 34°41' E 135°12'  
Track history (hours):
 
Tides and Currents Weather Stations Pressure Air Temp Water Temp Dewpoint Dewpoint Depression Visibility Wind Speed Wind Dir Waves Ship Positions

Keiho Maru

Last reported at 2017-Jan-17 07:07 UTC. Time now 2017-Jan-17 11:04 UTC.
Position N 34°41' E 135°12'.

Length 38 m; draft 3.6 m.

Type: Tug. MMSI: 431401501.

Date/timePositionNaut miles runAvg speedWind from/ knotsBaromVisibWave heightAir tempDewpointWater temp
2017-Jan-17 07:07N 34°41' E 135°12'2 4.3
2017-Jan-17 06:33N 34°39' E 135°15'0 0.3
2017-Jan-17 05:33N 34°39' E 135°15'0 0.0
2017-Jan-17 04:33N 34°39' E 135°15'0 0.0
2017-Jan-17 03:33N 34°39' E 135°15'0 0.0
2017-Jan-17 02:33N 34°39' E 135°15'0 0.0
2017-Jan-17 01:33N 34°39' E 135°15'3 2.9
2017-Jan-17 00:33N 34°42' E 135°14'1 0.8
2017-Jan-16 23:33N 34°41' E 135°14'2 1.6
2017-Jan-16 22:33N 34°40' E 135°14'1 1.0
2017-Jan-16 21:33N 34°41' E 135°14'2 1.7
2017-Jan-16 20:33N 34°41' E 135°12'1 0.1
2017-Jan-16 09:33N 34°41' E 135°13'4 3.6
2017-Jan-16 08:33N 34°41' E 135°17'3 2.6
2017-Jan-16 07:33N 34°41' E 135°14'0 0.0
2017-Jan-16 06:33N 34°41' E 135°14'0 0.0
2017-Jan-16 05:33N 34°41' E 135°14'0 0.0
2017-Jan-16 04:33N 34°41' E 135°14'2 1.7
2017-Jan-16 03:33N 34°42' E 135°16'1 1.3
2017-Jan-16 02:33N 34°42' E 135°18'5 5.0
2017-Jan-16 01:33N 34°40' E 135°12'0 0.0
2017-Jan-16 00:33N 34°41' E 135°12'0 0.0
2017-Jan-15 23:33N 34°41' E 135°12'2 0.1
2017-Jan-14 21:33N 34°40' E 135°15'1 1.1
2017-Jan-14 20:33N 34°40' E 135°14'0 0.1
2017-Jan-14 19:33N 34°40' E 135°14'0 0.0
2017-Jan-14 18:33N 34°40' E 135°14'0 0.0
2017-Jan-14 17:33N 34°40' E 135°14'0 0.0
2017-Jan-14 16:33N 34°40' E 135°14'1 0.9
2017-Jan-14 15:33N 34°39' E 135°15'2 2.5
2017-Jan-14 14:33N 34°41' E 135°13'0 0.0
2017-Jan-14 13:33N 34°41' E 135°13'2 1.8
2017-Jan-14 12:33N 34°41' E 135°15'2 1.7
2017-Jan-14 11:33N 34°40' E 135°16'2 2.2
2017-Jan-14 10:33N 34°40' E 135°13'0 0.0
2017-Jan-14 09:33N 34°40' E 135°13'0 0.0
2017-Jan-14 08:33N 34°40' E 135°13'1 1.0
2017-Jan-14 07:33N 34°41' E 135°12'0 0.4
2017-Jan-14 06:33N 34°41' E 135°12'0 0.0
2017-Jan-14 05:33N 34°41' E 135°12'0 0.0
2017-Jan-14 04:33N 34°41' E 135°12'0 0.0
2017-Jan-14 03:33N 34°41' E 135°12'1 0.3
2017-Jan-13 23:33N 34°41' E 135°14'2 1.9
2017-Jan-13 22:33N 34°39' E 135°15'1 1.5
2017-Jan-13 21:33N 34°39' E 135°13'2 1.9
2017-Jan-13 20:33N 34°41' E 135°12'0 0.0
2017-Jan-12 23:12N 34°41' E 135°12'4 6.4
2017-Jan-12 22:33N 34°41' E 135°17'2 1.8
2017-Jan-12 21:33N 34°40' E 135°18'2 1.7
2017-Jan-12 20:33N 34°41' E 135°16'0 0.0
2017-Jan-12 19:33N 34°41' E 135°16'0 0.0
2017-Jan-12 18:33N 34°41' E 135°16'0 0.0
2017-Jan-12 17:33N 34°41' E 135°16'2 1.9
2017-Jan-12 16:33N 34°40' E 135°14'0 0.2
2017-Jan-12 15:33N 34°40' E 135°14'1 0.9
2017-Jan-12 14:33N 34°40' E 135°15'0 0.4
2017-Jan-12 13:34N 34°41' E 135°15'2 2.0
2017-Jan-12 12:33N 34°41' E 135°13'0 0.0
2017-Jan-12 11:34N 34°41' E 135°13'2 2.1
2017-Jan-12 10:34N 34°41' E 135°15'1 1.1
2017-Jan-12 09:33N 34°40' E 135°15'0 0.5
2017-Jan-12 08:34N 34°40' E 135°15'1 0.7
2017-Jan-12 07:33N 34°40' E 135°14'0 0.1
2017-Jan-12 06:34N 34°40' E 135°14'1 1.1
2017-Jan-12 05:34N 34°41' E 135°14'2 2.1
2017-Jan-12 04:34N 34°42' E 135°16'0 0.0
2017-Jan-12 03:33N 34°42' E 135°16'1 0.8
2017-Jan-12 02:34N 34°42' E 135°17'4 3.8
2017-Jan-12 01:34N 34°41' E 135°12'0 0.0
2017-Jan-12 00:34N 34°41' E 135°12'0 0.0
2017-Jan-11 23:34N 34°41' E 135°12'3 2.9
2017-Jan-11 22:33N 34°39' E 135°15'1 1.4
2017-Jan-11 21:34N 34°40' E 135°15'2 2.0
2017-Jan-11 20:34N 34°41' E 135°12'0 0.0
2017-Jan-10 06:33N 34°41' E 135°12'0 0.0
2017-Jan-10 05:33N 34°41' E 135°12'0 0.0
2017-Jan-10 04:33N 34°41' E 135°12'0 0.0
2017-Jan-10 03:32N 34°41' E 135°12'0 0.0
2017-Jan-10 02:33N 34°41' E 135°12'0 0.0
2017-Jan-10 01:33N 34°41' E 135°12'0 0.0
2017-Jan-10 00:33N 34°41' E 135°12'3 3.2
2017-Jan-09 23:33N 34°42' E 135°16'0 0.5
2017-Jan-09 22:33N 34°42' E 135°15'3 2.8
2017-Jan-09 21:33N 34°41' E 135°12'0 0.1
2017-Jan-09 20:33N 34°41' E 135°12'0 0.0
2017-Jan-09 06:07N 34°41' E 135°12'1 2.2
2017-Jan-09 05:33N 34°41' E 135°14'2 1.7
2017-Jan-09 04:33N 34°42' E 135°15'2 2.5
2017-Jan-09 03:33N 34°41' E 135°12'2 2.2
2017-Jan-09 02:33N 34°41' E 135°15'2 1.8
2017-Jan-09 01:33N 34°41' E 135°13'1 0.7
2017-Jan-09 00:33N 34°41' E 135°12'0 0.0
2017-Jan-08 23:33N 34°41' E 135°12'0 0.0
2017-Jan-08 05:33N 34°41' E 135°12'0 0.0
2017-Jan-08 04:33N 34°41' E 135°12'0 0.0
2017-Jan-08 03:33N 34°41' E 135°12'0 0.0
2017-Jan-08 02:34N 34°41' E 135°12'4 4.1
2017-Jan-08 01:33N 34°41' E 135°17'1 1.3
2017-Jan-08 00:34N 34°40' E 135°18'4 4.2
2017-Jan-07 23:33N 34°41' E 135°13'1 1.0
2017-Jan-07 22:33N 34°41' E 135°12'0 0.0
2017-Jan-07 21:33N 34°41' E 135°12'  

Dump ship's entire track history